Airfield :
LOGIN :

Register | Disclaimer

   EN    FR    IT 

 










Legend :    VFR   Marginal VFR   IFR   Intensive IFR   Very Intensive IFR
Visi :
Ceiling :
>= 8 km
>= 3000ft
5 to 8 km
1000 to 3000 ft
1500m to 5 km
500 to 1000 ft
800 to 1500m
200 to 500 ft
< 800m
< 200 ft
Symbols :   Thunderstorms  Fog  Heavy snow  Heavy precipitations  Wind > 20 kt
SIGMETs :     Misc.  Thunderstorms  Icing  Turbulence  Mountain Waves  Volcanic Ashes







- Airport Elevation : 74 ft
- IATA code : LRH
- Download approach charts


LFBH - La Rochelle Ile de Ré

CURRENT METAR :
  • 200900Z AUTO 12005KT 6000 VV/// 07/07 Q1025 TEMPO 1500 BR BECMG OVC005

EXPIRED METARs :
  • 200830Z AUTO 12004KT 0350 0300 R27/0400N FG VV/// 06/06 Q1025 BECMG 9999 NSW OVC005
  • 200800Z AUTO 14003KT 0350 0300 R27/0375N FG VV/// 06/06 Q1025 TEMPO 1500 BR
  • 200730Z AUTO 15003KT 0200 R27/0225N FG VV/// 07/06 Q1025 TEMPO 1500 BR
  • 200700Z AUTO 14004KT 0350 R27/0400D FG VV/// 06/06 Q1025 TEMPO 1500 BR
  • 200630Z AUTO 15005KT 0250 R27/0275N FG VV/// 06/06 Q1024 TEMPO 1500 BR

TAF AMD TAF LFBH
Valid from the 20 at 09:00 until the 21 at 06:00 UTC


200923Z 2009/2106 12005KT 5000 BR OVC013
PROB40
TEMPO 2009/2010 2000 BR BKN003
BECMG 2010/2012 9999 NSW OVC005
BECMG 2012/2014 18010KT SCT015
TEMPO 2100/2106 0500 FG VV///
ATIS : +33 5 46 00 13 92
No reported NOTAMs for that airfield.



MET'MAP, your aeronautical weather chart ! - Copyright ORBIFLY December 2007 - Disclaimer

ORBIFLY MET'MAP TEAM :

Programming & Development : Alexandra Zaïnal
Concept & Development : Baudouin d'Aumeries
Co-Development & Prog : Marc-Olivier Méhu
Technical & hardware support : Manuel Goepfert

Contact : metmap@orbifly.com




SOURCES & CREDITS :

   NOAA